createdAt,value
2022-11-06T09:06:44.668Z,99.06
2022-11-06T09:13:21.063Z,97.74
2022-11-06T09:15:49.034Z,97.84
2022-11-06T09:18:17.180Z,97.83
2022-11-06T09:20:45.154Z,96.91
2022-11-06T09:23:13.513Z,96.29
2022-11-06T09:25:41.690Z,96.96
2022-11-06T09:28:09.633Z,96.45
2022-11-06T09:30:38.965Z,95.89
2022-11-06T09:33:12.160Z,95.50
2022-11-06T09:35:41.805Z,96.11
2022-11-06T09:38:12.366Z,95.74
2022-11-06T09:40:43.137Z,95.48
2022-11-06T09:43:43.105Z,96.06
2022-11-06T09:46:17.790Z,96.05
2022-11-06T09:48:49.249Z,96.23
2022-11-06T09:51:24.387Z,95.79
2022-11-06T09:53:56.314Z,95.86
2022-11-06T09:56:26.349Z,95.69
2022-11-06T09:58:55.093Z,96.13
2022-11-06T10:01:27.637Z,95.94
2022-11-06T10:03:57.990Z,96.58
2022-11-06T10:06:26.409Z,95.99
2022-11-06T10:08:58.956Z,95.88
2022-11-06T10:11:46.452Z,95.37
2022-11-06T10:14:25.448Z,95.58
2022-11-06T10:17:01.196Z,95.95
2022-11-06T10:19:35.637Z,95.54
2022-11-06T10:22:11.558Z,94.41
2022-11-06T10:24:46.293Z,94.35
2022-11-06T10:27:17.983Z,94.90
2022-11-06T10:30:04.499Z,93.83
2022-11-06T10:32:56.168Z,93.66
2022-11-06T10:35:27.869Z,93.32
2022-11-06T10:37:59.621Z,92.51
2022-11-06T10:40:31.338Z,91.74
2022-11-06T10:43:06.670Z,92.71
2022-11-06T10:45:35.562Z,92.42
2022-11-06T10:48:15.918Z,92.49
2022-11-06T10:51:13.410Z,91.53
2022-11-06T10:53:48.621Z,90.76
2022-11-06T10:56:25.402Z,91.18
2022-11-06T10:58:53.783Z,91.33
2022-11-06T11:01:22.086Z,90.42
2022-11-06T11:03:51.675Z,90.58
2022-11-06T11:06:19.940Z,90.34
2022-11-06T11:08:48.772Z,89.43
2022-11-06T11:11:20.827Z,89.53
2022-11-06T11:13:50.852Z,88.93
2022-11-06T11:16:20.147Z,88.74
2022-11-06T11:18:48.593Z,88.83
2022-11-06T11:21:24.980Z,88.68
2022-11-06T11:24:10.453Z,87.89
2022-11-06T11:26:40.695Z,87.60
2022-11-06T11:29:15.448Z,87.41
2022-11-06T11:31:47.160Z,87.25
2022-11-06T11:34:20.362Z,88.07
2022-11-06T11:36:52.125Z,86.25
2022-11-06T11:39:45.219Z,87.11
2022-11-06T11:42:24.861Z,87.01
2022-11-06T11:45:13.809Z,86.79
2022-11-06T11:47:43.393Z,86.41
2022-11-06T11:50:35.578Z,87.13
2022-11-06T11:53:10.403Z,85.44
2022-11-06T11:55:41.884Z,85.71
2022-11-06T11:58:20.791Z,86.23
2022-11-06T12:00:54.551Z,86.77
2022-11-06T12:03:23.798Z,86.16
2022-11-06T12:05:53.091Z,85.84
2022-11-06T12:08:26.853Z,84.88
2022-11-06T12:11:02.627Z,84.12
2022-11-06T12:13:30.646Z,84.40
2022-11-06T12:16:00.535Z,83.10
2022-11-06T12:18:31.789Z,84.03
2022-11-06T12:21:02.843Z,82.96
2022-11-06T12:23:37.232Z,83.49
2022-11-06T12:26:07.816Z,81.89
2022-11-06T12:28:37.449Z,81.78
2022-11-06T12:31:11.410Z,83.35
2022-11-06T12:34:05.078Z,82.88
2022-11-06T12:36:28.698Z,83.77
2022-11-06T12:39:00.618Z,82.48
2022-11-06T12:41:31.121Z,81.84
2022-11-06T12:44:00.012Z,81.90
2022-11-06T12:46:39.632Z,81.26
2022-11-06T12:49:28.886Z,81.07
2022-11-06T12:52:06.004Z,81.70
2022-11-06T12:55:00.144Z,81.86
2022-11-06T12:57:33.281Z,80.94
2022-11-06T13:00:07.522Z,80.66
2022-11-06T13:02:46.299Z,80.64
2022-11-06T13:05:17.667Z,81.86
2022-11-06T13:07:57.874Z,81.12
2022-11-06T13:10:34.536Z,80.51
2022-11-06T13:13:16.371Z,81.76
2022-11-06T13:15:49.274Z,80.64
2022-11-06T13:18:23.777Z,80.70
2022-11-06T13:20:55.819Z,79.93
2022-11-06T13:23:28.086Z,80.20
2022-11-06T13:26:03.356Z,79.99
2022-11-06T13:28:35.522Z,79.64
2022-11-06T13:31:04.691Z,79.74
2022-11-06T13:33:35.855Z,80.08
2022-11-06T13:36:04.085Z,80.58
2022-11-06T13:38:37.483Z,79.33
2022-11-06T13:41:12.990Z,78.92
2022-11-06T13:43:44.712Z,78.53
2022-11-06T13:46:22.481Z,78.32
2022-11-06T13:48:57.123Z,79.10
2022-11-06T13:51:30.902Z,79.65
2022-11-06T13:54:02.863Z,79.30
2022-11-06T13:57:01.002Z,79.41
2022-11-06T14:00:19.140Z,79.29
2022-11-06T14:03:08.801Z,80.13
2022-11-06T14:05:50.262Z,80.19
2022-11-06T14:08:21.869Z,80.43
2022-11-06T14:10:54.175Z,80.54
2022-11-06T14:13:28.697Z,79.65
2022-11-06T14:16:07.824Z,79.43
2022-11-06T14:18:36.336Z,79.42
2022-11-06T14:21:51.933Z,79.19
2022-11-06T14:24:32.378Z,79.02
2022-11-06T14:27:01.714Z,78.64
2022-11-06T14:30:00.477Z,79.20
2022-11-06T14:32:42.625Z,78.76
2022-11-06T14:35:50.568Z,77.22
2022-11-06T14:38:32.542Z,74.74
2022-11-06T14:41:00.903Z,74.32
2022-11-06T14:43:30.940Z,76.13
2022-11-06T14:46:02.527Z,76.77
2022-11-06T14:48:33.516Z,76.88
2022-11-06T14:51:03.279Z,77.80
2022-11-06T14:53:34.196Z,78.34
2022-11-06T14:56:03.504Z,77.96
2022-11-06T14:58:33.543Z,78.29
2022-11-06T15:01:12.493Z,78.62
2022-11-06T15:03:45.918Z,78.36
2022-11-06T15:06:35.667Z,78.71
2022-11-06T15:09:05.095Z,79.58
2022-11-06T15:12:07.264Z,80.23
2022-11-06T15:14:58.399Z,79.47
2022-11-06T15:17:34.142Z,80.33
2022-11-06T15:20:30.639Z,79.76
2022-11-06T15:23:20.630Z,80.96
2022-11-06T15:25:51.900Z,80.19
2022-11-06T15:28:22.201Z,80.75
2022-11-06T15:30:53.774Z,80.53
2022-11-06T15:33:28.202Z,79.96
2022-11-06T15:35:57.285Z,81.05
2022-11-06T15:38:38.845Z,80.23
2022-11-06T15:41:08.609Z,80.65
2022-11-06T15:43:37.843Z,81.30
2022-11-06T15:46:08.366Z,80.95
2022-11-06T15:48:38.038Z,81.40
2022-11-06T15:51:21.150Z,80.47
2022-11-06T15:53:49.273Z,81.59
2022-11-06T15:56:18.315Z,82.25
2022-11-06T15:58:46.618Z,81.35
2022-11-06T16:01:14.788Z,81.76
2022-11-06T16:04:15.767Z,81.96
2022-11-06T16:06:44.605Z,82.87
2022-11-06T16:09:18.018Z,82.95
2022-11-06T16:11:47.670Z,82.79
2022-11-06T16:14:15.928Z,82.53
2022-11-06T16:16:47.228Z,83.07
2022-11-06T16:19:26.360Z,83.06
2022-11-06T16:21:57.941Z,83.17
2022-11-06T16:24:27.889Z,82.89
2022-11-06T16:26:56.242Z,82.83
2022-11-06T16:29:26.927Z,83.28
2022-11-06T16:32:02.450Z,83.53
2022-11-06T16:34:43.894Z,83.48
2022-11-06T16:37:37.798Z,84.21
2022-11-06T16:40:23.170Z,83.97
2022-11-06T16:43:03.240Z,83.17
2022-11-06T16:45:31.688Z,82.77
2022-11-06T16:48:25.474Z,82.61
2022-11-06T16:50:56.781Z,83.46
2022-11-06T16:53:26.961Z,83.42
2022-11-06T16:55:56.464Z,84.24
2022-11-06T16:58:25.067Z,84.26
2022-11-06T17:00:58.943Z,84.26
2022-11-06T17:03:30.207Z,83.67
2022-11-06T17:06:00.200Z,83.64
2022-11-06T17:08:30.205Z,84.64
2022-11-06T17:10:58.592Z,83.97
2022-11-06T17:13:28.883Z,84.19
2022-11-06T17:15:58.421Z,83.09
2022-11-06T17:18:28.291Z,83.48
2022-11-06T17:20:57.745Z,83.81
2022-11-06T17:23:28.133Z,83.23
2022-11-06T17:25:59.322Z,83.61
2022-11-06T17:28:27.613Z,83.73
2022-11-06T17:30:56.038Z,84.31
2022-11-06T17:33:24.148Z,84.03
2022-11-06T17:35:52.356Z,84.84
2022-11-06T17:38:20.464Z,84.99
2022-11-06T17:40:50.095Z,84.27
2022-11-06T17:43:18.328Z,84.62
2022-11-06T17:45:49.730Z,85.17
2022-11-06T17:48:18.050Z,85.21
2022-11-06T17:51:03.600Z,84.83
2022-11-06T17:53:31.869Z,84.60
2022-11-06T17:56:05.364Z,85.28
2022-11-06T17:58:34.175Z,84.73
2022-11-06T18:01:08.766Z,85.65
2022-11-06T18:03:39.819Z,85.31
2022-11-06T18:06:10.345Z,86.11
2022-11-06T18:08:38.648Z,85.08
2022-11-06T18:11:09.269Z,85.57
2022-11-06T18:13:39.114Z,85.02
2022-11-06T18:16:15.931Z,85.31
2022-11-06T18:18:44.186Z,85.58
2022-11-06T18:21:12.423Z,86.10
2022-11-06T18:23:40.586Z,86.21
2022-11-06T18:26:10.131Z,86.64
2022-11-06T18:28:38.333Z,85.58
2022-11-06T18:31:06.623Z,85.36
2022-11-06T18:33:34.851Z,85.58
2022-11-06T18:36:04.625Z,85.81
2022-11-06T18:38:33.180Z,86.07
2022-11-06T18:41:07.787Z,85.14
2022-11-06T18:43:37.765Z,85.39
2022-11-06T18:46:06.811Z,85.35
2022-11-06T18:48:35.072Z,86.53
2022-11-06T18:51:07.547Z,85.92
2022-11-06T18:53:35.810Z,85.69
2022-11-06T18:56:04.248Z,86.49
2022-11-06T18:58:32.673Z,86.52
2022-11-06T19:01:05.840Z,87.10
2022-11-06T19:03:34.162Z,86.79
2022-11-06T19:06:02.644Z,87.56
2022-11-06T19:08:31.065Z,87.07
2022-11-06T19:10:59.300Z,86.93
2022-11-06T19:13:27.576Z,87.83
2022-11-06T19:15:57.357Z,87.43
2022-11-06T19:18:30.388Z,88.20
2022-11-06T19:20:59.046Z,87.92
2022-11-06T19:23:27.207Z,87.49
2022-11-06T19:26:04.515Z,87.91
2022-11-06T19:28:44.173Z,88.05
2022-11-06T19:31:13.081Z,88.27
2022-11-06T19:33:42.559Z,88.06
2022-11-06T19:36:10.789Z,88.46
2022-11-06T19:38:39.003Z,87.67
2022-11-06T19:41:07.199Z,88.81
2022-11-06T19:43:39.581Z,88.84
2022-11-06T19:46:09.016Z,88.50
2022-11-06T19:48:37.436Z,89.07
2022-11-06T19:51:10.180Z,88.69
2022-11-06T19:53:38.906Z,88.86
2022-11-06T19:56:08.340Z,88.71
2022-11-06T19:58:37.037Z,88.51
2022-11-06T20:01:07.444Z,88.42
2022-11-06T20:03:35.945Z,88.56
2022-11-06T20:06:07.811Z,89.12
2022-11-06T20:08:38.786Z,89.36
2022-11-06T20:11:09.018Z,89.30
2022-11-06T20:13:37.382Z,89.02
2022-11-06T20:16:07.026Z,89.73
2022-11-06T20:18:36.217Z,89.20
2022-11-06T20:21:06.877Z,89.61
2022-11-06T20:23:35.494Z,89.42
2022-11-06T20:26:06.071Z,88.82
2022-11-06T20:28:34.560Z,88.33
2022-11-06T20:31:06.206Z,89.23
2022-11-06T20:33:34.527Z,89.49
2022-11-06T20:36:10.448Z,89.43
2022-11-06T20:38:38.546Z,89.55
2022-11-06T20:41:08.374Z,89.43
2022-11-06T20:43:36.611Z,89.76
2022-11-06T20:46:05.453Z,89.69
2022-11-06T20:48:34.144Z,88.75
2022-11-06T20:51:04.156Z,88.94
2022-11-06T20:53:32.718Z,89.23
2022-11-06T20:56:02.279Z,89.60
2022-11-06T20:58:32.584Z,89.19
2022-11-06T21:01:04.490Z,89.73
2022-11-06T21:03:32.737Z,89.10
2022-11-06T21:06:01.141Z,89.48
2022-11-06T21:08:29.260Z,90.00
2022-11-06T21:11:00.812Z,89.80
2022-11-06T21:13:35.165Z,89.67
2022-11-06T21:16:04.948Z,90.11
2022-11-06T21:18:35.712Z,89.69
2022-11-06T21:21:04.061Z,89.76
2022-11-06T21:23:32.042Z,90.00
2022-11-06T21:26:04.910Z,90.35
2022-11-06T21:28:34.456Z,90.55
2022-11-06T21:31:09.974Z,90.01
2022-11-06T21:33:40.680Z,90.17
2022-11-06T21:36:10.284Z,90.33
2022-11-06T21:38:38.479Z,89.37
2022-11-06T21:41:07.494Z,89.91
2022-11-06T21:43:36.951Z,89.96
2022-11-06T21:46:06.833Z,90.26
2022-11-06T21:48:50.839Z,90.09
2022-11-06T21:51:20.936Z,90.17
2022-11-06T21:54:06.889Z,89.97
2022-11-06T21:56:35.698Z,90.59
2022-11-06T21:59:06.845Z,90.79
2022-11-06T22:01:35.367Z,90.11
2022-11-06T22:04:03.462Z,90.25
2022-11-06T22:06:31.558Z,90.61
2022-11-06T22:09:01.525Z,90.29
2022-11-06T22:11:30.772Z,90.41
2022-11-06T22:14:00.983Z,91.58
2022-11-06T22:16:35.828Z,90.98
2022-11-06T22:19:06.654Z,91.30
2022-11-06T22:21:35.849Z,91.22
2022-11-06T22:24:04.224Z,91.42
2022-11-06T22:26:34.148Z,90.95
2022-11-06T22:29:04.174Z,91.22
2022-11-06T22:31:33.779Z,91.46
2022-11-06T22:34:01.923Z,90.94
2022-11-06T22:36:33.427Z,91.18
2022-11-06T22:39:05.206Z,91.27
2022-11-06T22:41:33.276Z,91.38
2022-11-06T22:44:02.325Z,91.94
2022-11-06T22:46:31.210Z,92.11
2022-11-06T22:49:00.791Z,92.15
2022-11-06T22:51:31.061Z,91.65
2022-11-06T22:53:59.591Z,91.71
2022-11-06T22:56:28.986Z,92.38
2022-11-06T22:58:58.456Z,91.41
2022-11-06T23:01:28.662Z,91.64
2022-11-06T23:04:02.605Z,91.33
2022-11-06T23:06:31.027Z,91.55
2022-11-06T23:08:59.325Z,91.28
2022-11-06T23:11:29.230Z,91.39
2022-11-06T23:13:57.207Z,91.64
2022-11-06T23:16:40.594Z,90.78
2022-11-06T23:19:12.454Z,90.73
2022-11-06T23:21:41.101Z,91.07
2022-11-06T23:24:11.106Z,90.80
